Time;durP1;ratioP1;P1;durP2;ratioP2;P2;SDS_P1;SDS_P2;PMS_P1;PMS_P2;Temp;Humidity;BMP_temperature;BMP_pressure;BME280_temperature;BME280_humidity;BME280_pressure;Samples;Min_cycle;Max_cycle;Signal;HPM_P1;HPM_P2
2023/08/10 00:02:03;;;;;;;4.57;2.45;;;;;;;27.99;40.66;99330.84;5091763;28;20107;-72
2023/08/10 00:04:29;;;;;;;3.33;2.10;;;;;;;27.96;40.18;99331.13;5091629;28;20103;-71
2023/08/10 00:06:55;;;;;;;4.30;2.33;;;;;;;27.97;40.48;99332.81;5091850;28;20107;-71
2023/08/10 00:09:20;;;;;;;4.85;2.28;;;;;;;27.94;40.54;99322.38;5091395;28;20032;-71
2023/08/10 00:11:46;;;;;;;3.40;2.13;;;;;;;27.94;40.72;99327.75;5091473;28;20024;-71
2023/08/10 00:14:11;;;;;;;5.05;2.65;;;;;;;27.93;40.47;99348.34;5091518;28;20439;-71
2023/08/10 00:16:37;;;;;;;4.28;2.30;;;;;;;27.93;40.92;99352.88;5091696;28;20074;-71
2023/08/10 00:19:04;;;;;;;4.03;2.40;;;;;;;27.92;40.60;99343.09;5091679;28;20523;-71
2023/08/10 00:21:30;;;;;;;3.47;2.17;;;;;;;27.91;40.92;99336.91;5091663;28;20487;-70
2023/08/10 00:23:56;;;;;;;3.20;1.98;;;;;;;27.92;40.52;99346.66;5091388;28;20168;-72
2023/08/10 00:26:23;;;;;;;3.65;2.13;;;;;;;27.91;40.72;99358.38;5091707;28;20032;-71
2023/08/10 00:28:49;;;;;;;4.63;2.15;;;;;;;27.93;40.92;99366.28;5091601;28;20039;-71
2023/08/10 00:31:14;;;;;;;3.90;2.25;;;;;;;27.93;40.69;99371.63;5091480;28;20036;-71
2023/08/10 00:33:39;;;;;;;3.13;1.95;;;;;;;27.92;40.69;99361.88;5094324;28;20388;-71
2023/08/10 00:36:09;;;;;;;3.45;2.20;;;;;;;27.92;41.00;99364.56;5095592;28;20027;-70
2023/08/10 00:38:40;;;;;;;3.33;2.03;;;;;;;27.92;41.18;99388.69;5095159;28;20055;-70
2023/08/10 00:41:07;;;;;;;3.55;2.10;;;;;;;27.91;40.79;99381.63;5094034;28;20035;-71
2023/08/10 00:43:33;;;;;;;3.70;2.03;;;;;;;27.90;40.86;99385.31;5095092;28;20019;-71
2023/08/10 00:45:59;;;;;;;3.20;2.00;;;;;;;27.90;41.23;99401.41;5095339;28;20028;-71
2023/08/10 00:48:25;;;;;;;3.92;2.45;;;;;;;27.90;41.33;99406.75;5095054;28;20020;-71
2023/08/10 00:50:53;;;;;;;3.25;1.83;;;;;;;27.88;40.94;99399.72;5095006;28;20031;-72
2023/08/10 00:53:19;;;;;;;2.70;1.80;;;;;;;27.87;41.30;99387.28;5094997;28;20388;-71
2023/08/10 00:55:51;;;;;;;3.30;2.03;;;;;;;27.87;41.47;99392.66;5095046;28;20027;-70
2023/08/10 00:58:18;;;;;;;3.78;2.17;;;;;;;27.86;41.14;99382.94;5094988;28;20027;-71
2023/08/10 01:00:44;;;;;;;3.53;2.00;;;;;;;27.86;41.41;99385.59;5094686;28;20048;-72
2023/08/10 01:03:10;;;;;;;3.83;2.00;;;;;;;27.86;41.19;99396.34;5094835;28;20031;-70
2023/08/10 01:05:45;;;;;;;3.60;2.00;;;;;;;27.86;40.89;99396.34;5094957;28;20008;-71
2023/08/10 01:08:27;;;;;;;4.57;2.13;;;;;;;27.86;41.23;99374.88;5094527;28;20028;-70
2023/08/10 01:11:07;;;;;;;3.33;2.15;;;;;;;27.86;41.23;99337.34;5094711;28;20040;-71
2023/08/10 01:14:35;;;;;;;3.55;2.20;;;;;;;27.83;40.67;99302.75;5093280;28;20434;-70
2023/08/10 01:17:03;;;;;;;3.10;1.83;;;;;;;27.78;40.87;99267.50;5027599;28;20119;-71
2023/08/10 01:19:37;;;;;;;3.55;2.05;;;;;;;27.76;40.56;99245.34;5032027;28;20041;-70
2023/08/10 01:22:02;;;;;;;4.18;2.35;;;;;;;27.74;40.47;99225.88;5031783;28;20379;-71
2023/08/10 01:24:32;;;;;;;3.28;2.08;;;;;;;27.72;40.45;99238.59;5031994;28;20108;-71
2023/08/10 01:26:59;;;;;;;3.13;2.05;;;;;;;27.71;40.64;99243.09;5032149;28;20080;-71
2023/08/10 01:29:24;;;;;;;3.38;2.08;;;;;;;27.71;40.77;99215.44;5031739;28;20068;-71
2023/08/10 01:31:50;;;;;;;3.88;2.30;;;;;;;27.71;40.34;99184.13;5031729;28;20041;-71
2023/08/10 01:34:15;;;;;;;5.00;2.40;;;;;;;27.70;40.53;99162.84;5031603;28;20025;-71
2023/08/10 01:36:41;;;;;;;3.80;2.33;;;;;;;27.67;40.19;99122.91;5031441;28;20022;-71
2023/08/10 01:39:06;;;;;;;5.30;2.50;;;;;;;27.67;40.20;99085.38;5032052;28;20076;-71
2023/08/10 01:41:32;;;;;;;4.07;2.45;;;;;;;27.68;40.16;99066.50;5031692;28;20030;-71
2023/08/10 01:43:58;;;;;;;4.32;2.38;;;;;;;27.63;39.56;99046.47;5032051;28;20033;-71
2023/08/10 01:46:27;;;;;;;4.93;2.47;;;;;;;27.61;39.27;99034.06;5031884;28;20144;-71
2023/08/10 01:48:54;;;;;;;4.70;2.67;;;;;;;27.60;39.82;99061.03;5031817;28;20033;-71
2023/08/10 01:51:23;;;;;;;3.72;2.28;;;;;;;27.57;39.58;99063.97;5042537;28;20044;-71
2023/08/10 01:53:51;;;;;;;3.60;2.22;;;;;;;27.53;39.51;99063.41;5092766;28;20157;-71
2023/08/10 01:56:19;;;;;;;4.85;2.72;;;;;;;27.52;39.66;99093.03;5094031;28;20028;-71
2023/08/10 01:58:45;;;;;;;4.20;2.60;;;;;;;27.52;39.66;99128.72;5093772;28;20024;-71
2023/08/10 02:01:10;;;;;;;4.70;2.30;;;;;;;27.50;40.01;99170.88;5093611;28;20086;-72
2023/08/10 02:03:36;;;;;;;4.00;2.30;;;;;;;27.51;39.65;99220.81;5093974;28;20494;-71
2023/08/10 02:06:02;;;;;;;4.30;2.55;;;;;;;27.54;39.83;99241.09;5093514;28;20016;-71
2023/08/10 02:08:27;;;;;;;4.05;2.20;;;;;;;27.56;40.30;99244.50;5093970;28;20165;-70
2023/08/10 02:10:53;;;;;;;3.88;2.35;;;;;;;27.56;40.07;99256.03;5093605;28;20111;-70
2023/08/10 02:13:19;;;;;;;4.35;2.50;;;;;;;27.57;40.42;99271.16;5093409;28;20020;-71
2023/08/10 02:15:44;;;;;;;4.07;2.75;;;;;;;27.58;40.42;99259.47;5093548;28;20514;-71
2023/08/10 02:18:12;;;;;;;3.80;2.30;;;;;;;27.58;39.82;99232.69;5093484;28;20020;-70
2023/08/10 02:20:38;;;;;;;3.78;2.40;;;;;;;27.59;40.00;99223.66;5093256;28;20020;-71
2023/08/10 02:23:04;;;;;;;4.72;2.67;;;;;;;27.58;40.21;99219.28;5093253;28;20068;-71
2023/08/10 02:25:29;;;;;;;4.20;2.38;;;;;;;27.58;39.72;99216.59;5093236;28;20171;-71
2023/08/10 02:27:55;;;;;;;3.65;2.25;;;;;;;27.58;40.09;99221.97;5093466;28;20051;-71
2023/08/10 02:30:20;;;;;;;4.45;2.47;;;;;;;27.59;39.90;99223.66;5093074;28;20385;-71
2023/08/10 02:32:46;;;;;;;3.42;2.22;;;;;;;27.58;39.43;99230.00;5093200;28;20074;-72
2023/08/10 02:35:13;;;;;;;4.18;2.60;;;;;;;27.58;39.92;99221.09;5092909;28;20020;-72
2023/08/10 02:37:39;;;;;;;4.38;2.80;;;;;;;27.58;39.45;99216.59;5093043;28;20056;-71
2023/08/10 02:40:07;;;;;;;4.30;2.45;;;;;;;27.58;39.61;99211.25;5093157;28;20035;-71
2023/08/10 02:42:32;;;;;;;3.97;2.42;;;;;;;27.58;39.63;99205.03;5092957;28;20543;-72
2023/08/10 02:44:58;;;;;;;4.03;2.30;;;;;;;27.57;39.67;99217.56;5093117;28;20112;-71
2023/08/10 02:47:23;;;;;;;3.35;2.10;;;;;;;27.58;40.17;99246.09;5092989;28;20107;-71
2023/08/10 02:49:49;;;;;;;5.15;2.58;;;;;;;27.59;39.46;99276.38;5092589;28;20022;-71
2023/08/10 02:52:14;;;;;;;4.53;2.70;;;;;;;27.58;39.90;99275.56;5092509;28;20035;-72
2023/08/10 02:54:40;;;;;;;3.58;2.25;;;;;;;27.59;40.34;99285.28;5092731;28;20081;-71
2023/08/10 02:57:05;;;;;;;3.92;2.53;;;;;;;27.57;40.49;99300.66;5092588;28;20020;-71
2023/08/10 02:59:30;;;;;;;4.20;2.28;;;;;;;27.56;40.46;99316.84;5091611;28;20504;-72
2023/08/10 03:01:56;;;;;;;4.07;2.25;;;;;;;27.53;40.49;99323.34;5092394;28;20127;-72
2023/08/10 03:04:21;;;;;;;4.10;2.45;;;;;;;27.52;40.44;99321.66;5092204;28;20078;-71
2023/08/10 03:06:47;;;;;;;4.32;2.35;;;;;;;27.51;40.44;99317.28;5092800;28;20028;-70
2023/08/10 03:09:13;;;;;;;3.95;2.25;;;;;;;27.48;40.40;99328.28;5092582;28;20028;-71
2023/08/10 03:11:38;;;;;;;3.72;2.20;;;;;;;27.48;40.37;99341.66;5092408;28;20023;-71
2023/08/10 03:14:04;;;;;;;3.85;2.10;;;;;;;27.47;40.76;99337.31;5092433;28;20496;-72
2023/08/10 03:16:30;;;;;;;3.80;2.25;;;;;;;27.47;40.64;99331.94;5092460;28;20034;-71
2023/08/10 03:18:56;;;;;;;5.30;2.63;;;;;;;27.47;40.63;99342.66;5092295;28;20468;-71
2023/08/10 03:21:22;;;;;;;3.95;2.30;;;;;;;27.47;40.77;99342.66;5092412;28;20039;-70
2023/08/10 03:23:47;;;;;;;3.85;2.10;;;;;;;27.46;40.82;99335.59;5092139;28;20024;-71
2023/08/10 03:26:13;;;;;;;3.25;2.00;;;;;;;27.45;40.88;99312.50;5092081;28;20024;-71
2023/08/10 03:28:38;;;;;;;3.67;2.10;;;;;;;27.45;40.51;99321.34;5092305;28;20020;-70
2023/08/10 03:31:03;;;;;;;4.13;2.30;;;;;;;27.48;40.88;99330.94;5091996;28;20024;-71
2023/08/10 03:33:29;;;;;;;3.72;2.20;;;;;;;27.49;40.68;99313.88;5091811;28;20475;-70
2023/08/10 03:35:54;;;;;;;3.65;2.25;;;;;;;27.49;41.08;99303.16;5090879;28;20023;-71
2023/08/10 03:38:20;;;;;;;2.97;1.70;;;;;;;27.51;40.63;99301.22;5092176;28;20472;-70
2023/08/10 03:40:45;;;;;;;4.30;2.28;;;;;;;27.49;41.04;99324.59;5092213;28;20012;-72
2023/08/10 03:43:11;;;;;;;3.45;2.33;;;;;;;27.48;40.81;99322.91;5091964;28;20073;-71
2023/08/10 03:45:36;;;;;;;3.65;2.08;;;;;;;27.48;40.76;99330.94;5091991;28;20440;-72
2023/08/10 03:48:02;;;;;;;3.45;2.05;;;;;;;27.47;40.96;99343.50;5091539;28;20016;-71
2023/08/10 03:50:28;;;;;;;3.72;2.08;;;;;;;27.45;41.26;99340.09;5092091;28;20028;-71
2023/08/10 03:52:53;;;;;;;3.78;2.00;;;;;;;27.46;40.82;99346.31;5091998;28;20024;-71
2023/08/10 03:55:19;;;;;;;2.88;1.83;;;;;;;27.46;41.04;99346.31;5092140;28;20027;-71
2023/08/10 03:57:45;;;;;;;3.10;2.00;;;;;;;27.45;40.99;99350.00;5090556;28;20412;-72
2023/08/10 04:00:11;;;;;;;3.53;2.17;;;;;;;27.44;41.33;99357.19;5091740;28;20053;-71
2023/08/10 04:02:37;;;;;;;2.83;1.75;;;;;;;27.43;41.25;99362.66;5091522;28;20040;-71
2023/08/10 04:05:06;;;;;;;3.20;1.92;;;;;;;27.41;41.00;99376.19;5091783;28;20024;-70
2023/08/10 04:07:33;;;;;;;3.10;1.83;;;;;;;27.42;41.16;99382.41;5092946;28;20031;-71
2023/08/10 04:10:00;;;;;;;3.40;1.95;;;;;;;27.40;41.29;99371.00;5095898;28;20411;-71
2023/08/10 04:12:26;;;;;;;3.80;2.03;;;;;;;27.40;40.96;99368.31;5095803;28;20506;-71
2023/08/10 04:14:51;;;;;;;3.88;2.20;;;;;;;27.41;40.98;99380.72;5095783;28;20102;-71
2023/08/10 04:17:18;;;;;;;2.88;1.98;;;;;;;27.40;41.02;99393.25;5095822;28;20404;-71
2023/08/10 04:19:43;;;;;;;4.07;1.95;;;;;;;27.39;41.08;99388.91;5095793;28;20035;-71
2023/08/10 04:22:09;;;;;;;3.50;2.22;;;;;;;27.38;41.16;99399.75;5095758;28;20024;-71
2023/08/10 04:24:34;;;;;;;3.05;1.77;;;;;;;27.38;41.18;99407.78;5095672;28;20074;-71
2023/08/10 04:27:00;;;;;;;3.17;1.95;;;;;;;27.38;41.34;99413.13;5095714;28;20111;-71
2023/08/10 04:29:27;;;;;;;2.72;1.80;;;;;;;27.34;41.48;99418.78;5095354;28;20361;-72
2023/08/10 04:31:53;;;;;;;3.22;1.90;;;;;;;27.35;41.33;99419.63;5095248;28;20032;-72
2023/08/10 04:34:18;;;;;;;3.13;2.13;;;;;;;27.33;41.13;99427.81;5095603;28;20016;-70
2023/08/10 04:36:43;;;;;;;4.07;2.05;;;;;;;27.33;41.47;99433.16;5095671;28;20480;-72
2023/08/10 04:39:09;;;;;;;3.28;1.90;;;;;;;27.34;41.54;99439.34;5095551;28;20369;-71
2023/08/10 04:41:35;;;;;;;2.80;1.60;;;;;;;27.31;41.33;99451.19;5094118;28;20044;-71
2023/08/10 04:44:00;;;;;;;3.47;1.77;;;;;;;27.31;41.14;99451.19;5094162;28;20136;-72
2023/08/10 04:46:25;;;;;;;3.35;2.00;;;;;;;27.31;41.67;99450.34;5094953;28;20028;-71
2023/08/10 04:48:51;;;;;;;3.88;2.30;;;;;;;27.30;41.73;99460.22;5095381;28;20020;-71
2023/08/10 04:51:16;;;;;;;2.95;1.80;;;;;;;27.30;41.22;99462.91;5095207;28;20054;-71
2023/08/10 04:53:41;;;;;;;3.33;2.03;;;;;;;27.30;41.24;99478.97;5095195;28;20035;-72
2023/08/10 04:56:07;;;;;;;3.15;1.70;;;;;;;27.29;41.38;99482.63;5095300;28;20028;-71
2023/08/10 04:58:32;;;;;;;2.88;1.80;;;;;;;27.29;41.44;99482.63;5095133;28;20468;-71
2023/08/10 05:00:58;;;;;;;4.28;2.40;;;;;;;27.30;41.71;99484.31;5094151;28;20040;-71
2023/08/10 05:03:23;;;;;;;3.33;1.95;;;;;;;27.29;41.33;99488.00;5093698;28;20476;-71
2023/08/10 05:05:51;;;;;;;2.88;1.88;;;;;;;27.26;41.71;99496.28;5093709;28;20024;-71
2023/08/10 05:08:16;;;;;;;3.55;1.63;;;;;;;27.28;41.48;99498.84;5093670;28;20035;-71
2023/08/10 05:10:44;;;;;;;3.72;1.98;;;;;;;27.27;41.78;99506.03;5093666;28;20024;-71
2023/08/10 05:13:10;;;;;;;4.13;2.03;;;;;;;27.28;41.72;99507.72;5093312;28;20039;-70
2023/08/10 05:15:35;;;;;;;4.10;2.00;;;;;;;27.27;41.54;99511.41;5093211;28;20448;-71
2023/08/10 05:18:02;;;;;;;3.80;2.28;;;;;;;27.28;41.78;99505.06;5093011;28;20172;-72
2023/08/10 05:20:27;;;;;;;3.15;2.03;;;;;;;27.28;41.63;99517.59;5093668;28;20028;-71
2023/08/10 05:22:53;;;;;;;3.10;1.80;;;;;;;27.26;41.52;99523.06;5093238;28;20472;-71
2023/08/10 05:25:18;;;;;;;3.53;2.13;;;;;;;27.27;41.66;99529.28;5093449;28;20456;-71
2023/08/10 05:27:44;;;;;;;3.70;1.85;;;;;;;27.28;41.70;99531.84;5093491;28;20488;-71
2023/08/10 05:30:13;;;;;;;3.45;1.80;;;;;;;27.26;41.91;99536.47;5093087;28;20103;-71
2023/08/10 05:32:39;;;;;;;3.63;2.00;;;;;;;27.26;41.89;99539.13;5093559;28;20039;-71
2023/08/10 05:35:07;;;;;;;4.18;2.03;;;;;;;27.25;41.98;99550.84;5093436;28;20051;-71
2023/08/10 05:37:33;;;;;;;3.20;2.10;;;;;;;27.24;41.56;99557.19;5093205;28;20024;-70
2023/08/10 05:40:07;;;;;;;3.67;2.20;;;;;;;27.23;41.75;99560.84;5093407;28;20067;-69
2023/08/10 05:42:32;;;;;;;3.45;2.05;;;;;;;27.24;41.68;99557.19;5091448;28;20026;-72
2023/08/10 05:44:58;;;;;;;4.57;2.17;;;;;;;27.23;42.05;99566.22;5093093;28;20463;-71
2023/08/10 05:47:23;;;;;;;4.15;2.05;;;;;;;27.24;41.61;99578.63;5092940;28;20016;-70
2023/08/10 05:49:48;;;;;;;3.45;1.90;;;;;;;27.24;41.71;99562.53;5091564;28;20073;-71
2023/08/10 05:52:14;;;;;;;4.00;2.20;;;;;;;27.22;41.96;99567.19;5092908;28;20032;-71
2023/08/10 05:54:39;;;;;;;4.03;2.00;;;;;;;27.22;42.08;99580.59;5093042;28;20028;-71
2023/08/10 05:57:04;;;;;;;3.75;2.10;;;;;;;27.25;41.65;99572.28;5092569;28;20063;-71
2023/08/10 05:59:30;;;;;;;4.47;2.20;;;;;;;27.25;41.94;99584.84;5093037;28;20032;-71
2023/08/10 06:01:55;;;;;;;;;;;;;;;27.24;41.66;99594.69;5050743;28;1226586;-72
2023/08/10 06:04:21;;;;;;;4.30;2.63;;;;;;;27.23;42.13;99592.13;5093805;28;19923;-72
2023/08/10 06:06:46;;;;;;;3.80;2.00;;;;;;;27.21;42.05;99606.50;5093771;28;20024;-71
2023/08/10 06:09:12;;;;;;;3.40;2.10;;;;;;;27.23;42.10;99608.22;5093744;28;20399;-71
2023/08/10 06:11:38;;;;;;;3.90;2.00;;;;;;;27.24;41.79;99608.09;5093144;28;20020;-71
2023/08/10 06:14:04;;;;;;;3.75;1.95;;;;;;;27.23;42.08;99624.28;5093663;28;20020;-71
2023/08/10 06:16:29;;;;;;;3.92;2.17;;;;;;;27.24;41.67;99621.47;5093657;28;20024;-69
2023/08/10 06:18:54;;;;;;;4.05;2.20;;;;;;;27.23;41.79;99619.78;5093353;28;20031;-71
2023/08/10 06:21:20;;;;;;;4.32;2.13;;;;;;;27.25;41.77;99623.16;5093253;28;20119;-70
2023/08/10 06:23:45;;;;;;;3.33;1.90;;;;;;;27.25;41.73;99623.16;5093583;28;20020;-71
2023/08/10 06:26:12;;;;;;;6.35;2.25;;;;;;;27.26;41.81;99622.19;5093191;28;20020;-70
2023/08/10 06:28:38;;;;;;;3.70;2.17;;;;;;;27.27;41.77;99637.31;5093471;28;20396;-71
2023/08/10 06:31:09;;;;;;;3.92;2.38;;;;;;;27.27;41.59;99631.94;5092378;28;20035;-71
2023/08/10 06:33:35;;;;;;;4.57;2.13;;;;;;;27.28;42.02;99628.28;5093114;28;20440;-71
2023/08/10 06:36:00;;;;;;;4.50;2.47;;;;;;;27.28;41.89;99630.97;5093338;28;20107;-71
2023/08/10 06:38:26;;;;;;;4.63;2.22;;;;;;;27.28;41.87;99632.78;5093038;28;20400;-71
2023/08/10 06:40:53;;;;;;;4.97;2.47;;;;;;;27.29;41.77;99639.81;5091393;28;20031;-70
2023/08/10 06:43:19;;;;;;;5.63;2.22;;;;;;;27.28;41.85;99648.84;5093341;28;20028;-71
2023/08/10 06:45:44;;;;;;;4.97;2.30;;;;;;;27.28;41.86;99649.72;5091741;28;20047;-70
2023/08/10 06:48:11;;;;;;;3.78;2.22;;;;;;;27.28;41.72;99655.06;5092927;28;20059;-71
2023/08/10 06:50:37;;;;;;;4.15;2.40;;;;;;;27.30;41.77;99663.81;5092968;28;20031;-70
2023/08/10 06:53:03;;;;;;;5.30;2.45;;;;;;;27.29;41.77;99659.44;5092684;28;20020;-71
2023/08/10 06:55:30;;;;;;;3.33;1.92;;;;;;;27.28;42.00;99660.44;5092664;28;20024;-71
2023/08/10 06:57:56;;;;;;;3.40;1.88;;;;;;;27.28;41.81;99659.56;5092950;28;20020;-71
2023/08/10 07:00:24;;;;;;;4.65;2.25;;;;;;;27.29;41.74;99664.81;5092613;28;20094;-71
2023/08/10 07:02:50;;;;;;;4.45;2.00;;;;;;;27.29;41.75;99672.84;5092624;28;20028;-71
2023/08/10 07:05:16;;;;;;;3.55;1.90;;;;;;;27.29;41.88;99669.28;5092571;28;20077;-71
2023/08/10 07:07:41;;;;;;;4.10;1.95;;;;;;;27.30;42.05;99673.66;5092605;28;20035;-72
2023/08/10 07:10:08;;;;;;;4.20;2.40;;;;;;;27.30;41.86;99674.53;5092221;28;20020;-71
2023/08/10 07:12:33;;;;;;;3.65;2.13;;;;;;;27.30;41.71;99674.53;5092219;28;20024;-70
2023/08/10 07:14:59;;;;;;;4.45;2.17;;;;;;;27.31;41.86;99681.59;5092259;28;20038;-71
2023/08/10 07:17:24;;;;;;;4.13;2.08;;;;;;;27.33;41.75;99685.00;5092830;28;20053;-71
2023/08/10 07:19:49;;;;;;;3.78;2.10;;;;;;;27.32;41.85;99688.63;5092578;28;20106;-72
2023/08/10 07:22:15;;;;;;;4.45;2.15;;;;;;;27.32;41.64;99691.31;5092280;28;20407;-71
2023/08/10 07:24:40;;;;;;;5.05;2.40;;;;;;;27.32;42.10;99691.31;5092078;28;20021;-71
2023/08/10 07:27:06;;;;;;;3.35;1.88;;;;;;;27.34;41.88;99693.88;5092413;28;20459;-72
2023/08/10 07:29:31;;;;;;;3.95;2.08;;;;;;;27.32;41.73;99694.00;5092090;28;20093;-72
2023/08/10 07:32:00;;;;;;;4.45;2.30;;;;;;;27.33;41.80;99695.72;5092221;28;20024;-72
2023/08/10 07:34:27;;;;;;;3.38;2.10;;;;;;;27.34;41.99;99692.06;5092328;28;20024;-71
2023/08/10 07:36:53;;;;;;;3.45;2.10;;;;;;;27.33;41.79;99695.72;5092142;28;20030;-72
2023/08/10 07:39:18;;;;;;;4.55;2.30;;;;;;;27.34;42.17;99691.19;5091745;28;20095;-72
2023/08/10 07:41:44;;;;;;;3.75;1.92;;;;;;;27.34;41.96;99697.41;5091902;28;20153;-70
2023/08/10 07:44:09;;;;;;;5.60;2.28;;;;;;;27.34;42.10;99692.06;5090826;28;20024;-72
2023/08/10 07:46:35;;;;;;;3.45;2.00;;;;;;;27.34;41.87;99697.41;5092046;28;20020;-70
2023/08/10 07:49:00;;;;;;;4.07;2.13;;;;;;;27.35;41.80;99698.25;5092061;28;20032;-71
2023/08/10 07:51:25;;;;;;;3.72;2.05;;;;;;;27.34;41.76;99692.06;5091846;28;20036;-72
2023/08/10 07:53:51;;;;;;;3.33;2.00;;;;;;;27.36;42.16;99694.63;5091826;28;20032;-71
2023/08/10 07:56:16;;;;;;;3.47;2.13;;;;;;;27.37;41.86;99700.81;5091749;28;20033;-71
2023/08/10 07:58:42;;;;;;;3.17;1.77;;;;;;;27.38;42.21;99713.22;5092118;28;20035;-71
2023/08/10 08:01:08;;;;;;;4.25;2.10;;;;;;;27.38;41.97;99713.22;5091693;28;20044;-71
2023/08/10 08:03:34;;;;;;;3.60;1.90;;;;;;;27.37;41.88;99714.19;5091843;28;20032;-71
2023/08/10 08:06:00;;;;;;;4.30;2.20;;;;;;;27.37;41.90;99717.75;5091975;28;20055;-70
2023/08/10 08:08:28;;;;;;;4.30;1.90;;;;;;;27.39;41.97;99725.63;5091460;28;20059;-72
2023/08/10 08:10:54;;;;;;;3.85;1.83;;;;;;;27.38;41.85;99730.16;5091831;28;20024;-71
2023/08/10 08:13:19;;;;;;;4.28;1.90;;;;;;;27.39;41.94;99737.22;5090365;28;20509;-71
2023/08/10 08:15:44;;;;;;;4.18;2.22;;;;;;;27.39;41.96;99739.03;5091791;28;20042;-72
2023/08/10 08:18:48;;;;;;;5.50;2.63;;;;;;;27.40;42.08;99740.75;5091828;28;20598;-71
2023/08/10 08:21:18;;;;;;;7.10;2.50;;;;;;;27.39;42.33;99731.84;5091841;28;20025;-70
2023/08/10 08:23:44;;;;;;;4.93;2.33;;;;;;;27.41;41.76;99734.41;5091484;28;20023;-71
2023/08/10 08:26:11;;;;;;;4.30;2.00;;;;;;;27.41;42.27;99731.72;5091476;28;20527;-72
2023/08/10 08:28:36;;;;;;;3.90;2.30;;;;;;;27.41;41.95;99740.59;5091840;28;20036;-71
2023/08/10 08:31:02;;;;;;;3.65;2.25;;;;;;;27.43;41.92;99738.66;5091503;28;20032;-71
2023/08/10 08:33:28;;;;;;;4.68;2.17;;;;;;;27.43;42.40;99741.34;5091633;28;20028;-70
2023/08/10 08:35:54;;;;;;;4.63;2.25;;;;;;;27.45;42.35;99743.91;5091574;28;20020;-71
2023/08/10 08:38:19;;;;;;;4.40;2.30;;;;;;;27.45;42.07;99739.38;5091446;28;20499;-72
2023/08/10 08:40:48;;;;;;;3.92;1.98;;;;;;;27.47;42.20;99744.59;5091641;28;20024;-71
2023/08/10 08:43:14;;;;;;;3.95;2.30;;;;;;;27.47;42.11;99745.44;5091426;28;20491;-72
2023/08/10 08:45:40;;;;;;;4.18;2.47;;;;;;;27.49;41.91;99748.00;5091711;28;20036;-71
2023/08/10 08:48:07;;;;;;;3.08;1.73;;;;;;;27.49;41.86;99742.63;5091522;28;20066;-71
2023/08/10 08:50:35;;;;;;;4.18;2.08;;;;;;;27.49;42.20;99739.94;5091456;28;20028;-71
2023/08/10 08:53:00;;;;;;;4.70;2.30;;;;;;;27.51;41.86;99745.19;5091442;28;20048;-71
2023/08/10 08:55:27;;;;;;;3.42;2.03;;;;;;;27.49;42.02;99742.63;5095265;28;20549;-72
2023/08/10 08:57:52;;;;;;;3.78;1.77;;;;;;;27.52;42.16;99749.56;5094996;28;20031;-70
2023/08/10 09:00:18;;;;;;;4.43;2.20;;;;;;;27.52;42.30;99749.56;5093471;28;20027;-71
2023/08/10 09:02:43;;;;;;;4.75;2.17;;;;;;;27.52;42.09;99755.78;5095012;28;20016;-70
2023/08/10 09:05:09;;;;;;;4.18;2.08;;;;;;;27.54;42.27;99764.53;5095136;28;20444;-72
2023/08/10 09:07:34;;;;;;;3.90;2.10;;;;;;;27.55;41.89;99760.88;5094594;28;20027;-70
2023/08/10 09:10:00;;;;;;;4.65;2.33;;;;;;;27.55;41.83;99757.34;5094752;28;20028;-72
2023/08/10 09:12:29;;;;;;;3.38;2.00;;;;;;;27.55;42.22;99747.47;5094579;28;20023;-72
2023/08/10 09:15:08;;;;;;;4.25;1.98;;;;;;;27.56;41.84;99749.16;5094529;28;20020;-71
2023/08/10 09:17:35;;;;;;;3.72;1.90;;;;;;;27.57;42.31;99750.88;5094811;28;20024;-71
2023/08/10 09:20:02;;;;;;;4.03;2.28;;;;;;;27.57;42.15;99750.88;5094620;28;20036;-71
2023/08/10 09:22:36;;;;;;;4.07;2.15;;;;;;;27.58;42.21;99749.94;5094795;28;20475;-69
2023/08/10 09:25:03;;;;;;;4.80;2.20;;;;;;;27.59;41.87;99753.44;5094832;28;20389;-71
2023/08/10 09:27:29;;;;;;;3.88;2.25;;;;;;;27.60;42.14;99758.69;5094677;28;20024;-71
2023/08/10 09:29:59;;;;;;;4.32;2.30;;;;;;;27.61;42.15;99767.59;5094633;28;20036;-71
2023/08/10 09:32:25;;;;;;;4.07;2.30;;;;;;;27.63;41.90;99759.41;5094332;28;20070;-70
2023/08/10 09:34:51;;;;;;;3.90;2.10;;;;;;;27.63;42.05;99767.44;5094205;28;20056;-71
2023/08/10 09:37:17;;;;;;;4.68;2.30;;;;;;;27.63;42.38;99759.41;5094431;28;20085;-70
2023/08/10 09:39:43;;;;;;;4.68;2.30;;;;;;;27.65;42.16;99762.81;5094460;28;20027;-71
2023/08/10 09:42:09;;;;;;;3.70;2.20;;;;;;;27.65;42.08;99763.66;5094224;28;20426;-72
2023/08/10 09:44:51;;;;;;;5.13;2.50;;;;;;;27.65;41.96;99762.81;5094431;28;20089;-71
2023/08/10 09:47:18;;;;;;;4.03;2.03;;;;;;;27.67;41.92;99760.84;5094195;28;20062;-72
2023/08/10 09:50:00;;;;;;;4.90;2.10;;;;;;;27.65;41.91;99758.28;5093704;28;20491;-71
2023/08/10 09:52:26;;;;;;;5.03;2.15;;;;;;;27.69;42.19;99764.25;5093976;28;20056;-72
2023/08/10 09:54:53;;;;;;;3.80;2.28;;;;;;;27.69;41.88;99758.91;5094102;28;20024;-71
2023/08/10 09:57:20;;;;;;;3.80;2.00;;;;;;;27.70;42.25;99752.56;5094149;28;20085;-71
2023/08/10 09:59:47;;;;;;;4.50;2.00;;;;;;;27.72;42.34;99758.63;5093966;28;20499;-71
2023/08/10 10:02:13;;;;;;;4.38;1.88;;;;;;;27.71;41.86;99756.94;5093608;28;20131;-71
2023/08/10 10:04:39;;;;;;;5.13;2.03;;;;;;;27.73;41.93;99754.97;5092912;28;20024;-71
2023/08/10 10:07:07;;;;;;;3.92;2.10;;;;;;;27.73;42.42;99750.47;5093392;28;20028;-72
2023/08/10 10:09:37;;;;;;;5.85;2.20;;;;;;;27.74;42.32;99762.00;5093600;28;20032;-72
2023/08/10 10:12:10;;;;;;;4.07;2.10;;;;;;;27.75;42.16;99747.66;5093789;28;20036;-71
2023/08/10 10:14:40;;;;;;;4.78;2.20;;;;;;;27.76;42.18;99744.00;5093476;28;20112;-72
2023/08/10 10:17:07;;;;;;;3.90;2.00;;;;;;;27.77;42.00;99751.03;5093491;28;20081;-71
2023/08/10 10:19:33;;;;;;;4.32;2.25;;;;;;;27.78;42.37;99747.38;5093105;28;20480;-71
2023/08/10 10:22:00;;;;;;;3.80;2.30;;;;;;;27.79;41.96;99745.56;5093662;28;20049;-72
2023/08/10 10:24:31;;;;;;;3.25;1.75;;;;;;;27.77;42.03;99740.31;5093436;28;20065;-71
2023/08/10 10:27:08;;;;;;;3.90;2.10;;;;;;;27.81;41.87;99746.25;5093448;28;20027;-71
2023/08/10 10:29:48;;;;;;;3.97;1.88;;;;;;;27.81;42.04;99735.53;5093185;28;20491;-72
2023/08/10 10:32:16;;;;;;;3.78;2.08;;;;;;;27.82;42.22;99748.81;5093330;28;20073;-71
2023/08/10 10:34:43;;;;;;;4.53;2.40;;;;;;;27.81;42.30;99747.13;5093003;28;20031;-72
2023/08/10 10:37:27;;;;;;;5.20;2.40;;;;;;;27.82;41.94;99754.19;5093179;28;20028;-71
2023/08/10 10:40:11;;;;;;;4.57;2.13;;;;;;;27.84;41.96;99754.88;5091968;28;20032;-71
2023/08/10 10:43:03;;;;;;;5.13;2.00;;;;;;;27.85;42.35;99753.06;5093126;28;20492;-71
2023/08/10 10:45:34;;;;;;;3.83;2.10;;;;;;;27.86;42.00;99750.25;5093039;28;20027;-72
2023/08/10 10:47:59;;;;;;;4.30;2.20;;;;;;;27.88;41.93;99744.75;5092938;28;20028;-71
2023/08/10 10:50:28;;;;;;;4.25;2.00;;;;;;;27.88;41.97;99750.97;5092955;28;20020;-72
2023/08/10 10:53:10;;;;;;;3.95;2.42;;;;;;;27.90;42.06;99749.97;5092829;28;20508;-71
2023/08/10 10:55:35;;;;;;;3.97;2.15;;;;;;;27.92;42.32;99742.66;5092689;28;20027;-72
2023/08/10 10:58:02;;;;;;;5.22;2.03;;;;;;;27.92;42.03;99756.91;5092858;28;20024;-72
2023/08/10 11:00:28;;;;;;;4.03;2.20;;;;;;;27.93;41.94;99750.56;5092566;28;20036;-72
2023/08/10 11:02:54;;;;;;;4.30;2.05;;;;;;;27.94;42.22;99756.78;5092157;28;20046;-70
2023/08/10 11:05:20;;;;;;;4.80;2.10;;;;;;;27.95;42.25;99753.13;5092757;28;20024;-71
2023/08/10 11:07:50;;;;;;;3.83;1.98;;;;;;;27.96;41.96;99750.31;5092615;28;20105;-72
2023/08/10 11:10:18;;;;;;;3.90;2.22;;;;;;;27.98;42.24;99747.47;5092596;28;20016;-72
2023/08/10 11:12:45;;;;;;;3.75;2.08;;;;;;;27.97;41.99;99740.41;5091245;28;20020;-73
2023/08/10 11:15:13;;;;;;;5.35;2.42;;;;;;;27.99;42.22;99739.31;5092604;28;20373;-70
2023/08/10 11:17:47;;;;;;;4.50;2.08;;;;;;;28.00;41.92;99734.81;5091837;28;20024;-71
2023/08/10 11:20:18;;;;;;;4.85;2.10;;;;;;;28.02;42.10;99748.91;5092588;28;20024;-71
2023/08/10 11:22:45;;;;;;;4.80;2.00;;;;;;;28.03;42.07;99745.25;5092620;28;20395;-71
2023/08/10 11:25:16;;;;;;;4.65;2.35;;;;;;;28.03;42.00;99734.53;5092289;28;20034;-71
2023/08/10 11:27:45;;;;;;;4.25;2.20;;;;;;;28.06;41.89;99728.03;5092449;28;20069;-71
2023/08/10 11:30:13;;;;;;;3.78;2.08;;;;;;;28.06;41.99;99728.03;5092258;28;20036;-71
2023/08/10 11:32:43;;;;;;;5.90;2.40;;;;;;;28.07;42.22;99735.09;5091765;28;20028;-72
2023/08/10 11:35:10;;;;;;;5.85;2.83;;;;;;;28.08;42.08;99736.81;5092270;28;20032;-71